Time;durP1;ratioP1;P1;durP2;ratioP2;P2;SDS_P1;SDS_P2;PMS_P1;PMS_P2;Temp;Humidity;BMP_temperature;BMP_pressure;BME280_temperature;BME280_humidity;BME280_pressure;Samples;Min_cycle;Max_cycle;Signal;HPM_P1;HPM_P2
2023/03/06 00:02:25;;;;;;;29.88;12.88;;;;;;;;;;5040446;28;20047;-79
2023/03/06 00:04:52;;;;;;;25.73;12.40;;;;;;;;;;5041199;28;20055;-80
2023/03/06 00:07:19;;;;;;;25.80;12.88;;;;;;;;;;5040551;28;20049;-77
2023/03/06 00:09:47;;;;;;;25.35;12.57;;;;;;;;;;5042827;28;20073;-80
2023/03/06 00:12:13;;;;;;;25.05;10.93;;;;;;;;;;5060208;28;20095;-77
2023/03/06 00:14:40;;;;;;;25.13;12.20;;;;;;;;;;5059802;28;20132;-79
2023/03/06 00:17:07;;;;;;;27.85;11.70;;;;;;;;;;5059062;28;20132;-78
2023/03/06 00:19:33;;;;;;;22.20;11.45;;;;;;;;;;5055022;28;20416;-79
2023/03/06 00:22:02;;;;;;;23.85;11.63;;;;;;;;;;5056194;28;20049;-78
2023/03/06 00:24:28;;;;;;;23.92;10.85;;;;;;;;;;5058247;28;20049;-78
2023/03/06 00:26:56;;;;;;;20.85;9.73;;;;;;;;;;5056390;28;20051;-78
2023/03/06 00:29:23;;;;;;;25.80;10.93;;;;;;;;;;5056851;28;20055;-78
2023/03/06 00:31:49;;;;;;;24.98;11.20;;;;;;;;;;5055186;28;20136;-78
2023/03/06 00:34:16;;;;;;;24.33;10.65;;;;;;;;;;5056675;28;20129;-79
2023/03/06 00:36:43;;;;;;;25.63;12.63;;;;;;;;;;5059598;28;20059;-78
2023/03/06 00:39:09;;;;;;;22.98;11.23;;;;;;;;;;5055101;28;20132;-77
2023/03/06 00:41:36;;;;;;;25.27;11.27;;;;;;;;;;5055431;28;20454;-78
2023/03/06 00:44:04;;;;;;;24.40;10.90;;;;;;;;;;5054830;28;20132;-78
2023/03/06 00:46:31;;;;;;;23.35;12.32;;;;;;;;;;5055014;28;20049;-79
2023/03/06 00:48:57;;;;;;;22.95;11.02;;;;;;;;;;5055143;28;20133;-78
2023/03/06 00:51:24;;;;;;;21.67;12.05;;;;;;;;;;5054855;28;20407;-78
2023/03/06 00:53:51;;;;;;;23.95;10.80;;;;;;;;;;5054975;28;20223;-80
2023/03/06 00:56:18;;;;;;;25.70;10.82;;;;;;;;;;5054723;28;20485;-78
2023/03/06 00:58:45;;;;;;;25.73;11.00;;;;;;;;;;5053796;28;20037;-78
2023/03/06 01:01:13;;;;;;;23.98;9.65;;;;;;;;;;5054590;28;20132;-79
2023/03/06 01:03:39;;;;;;;23.83;10.25;;;;;;;;;;5055109;28;20558;-78
2023/03/06 01:06:06;;;;;;;27.27;11.13;;;;;;;;;;5055836;28;20115;-77
2023/03/06 01:08:33;;;;;;;23.55;10.52;;;;;;;;;;5078430;28;20033;-80
2023/03/06 01:10:59;;;;;;;27.33;11.25;;;;;;;;;;5077065;28;20056;-77
2023/03/06 01:13:26;;;;;;;27.58;11.30;;;;;;;;;;5054924;28;20059;-77
2023/03/06 01:15:53;;;;;;;23.13;11.02;;;;;;;;;;5054357;28;20084;-77
2023/03/06 01:18:21;;;;;;;23.00;11.23;;;;;;;;;;5054225;28;20511;-78
2023/03/06 01:20:48;;;;;;;26.95;11.68;;;;;;;;;;5052615;22;20124;-52
2023/03/06 01:23:15;;;;;;;26.77;11.75;;;;;;;;;;5034290;28;20049;-51
2023/03/06 01:25:44;;;;;;;25.70;11.52;;;;;;;;;;5034331;28;20104;-51
2023/03/06 01:28:11;;;;;;;23.92;10.98;;;;;;;;;;5034269;28;20502;-54
2023/03/06 01:30:37;;;;;;;24.15;10.30;;;;;;;;;;5034076;28;20049;-50
2023/03/06 01:33:04;;;;;;;24.77;10.50;;;;;;;;;;5034154;28;20041;-52
2023/03/06 01:35:32;;;;;;;27.10;11.68;;;;;;;;;;5034006;28;20093;-55
2023/03/06 01:37:59;;;;;;;24.92;11.60;;;;;;;;;;5034435;28;20107;-52
2023/03/06 01:40:26;;;;;;;25.77;12.43;;;;;;;;;;5033961;28;20049;-54
2023/03/06 01:42:53;;;;;;;25.92;11.60;;;;;;;;;;5034003;28;20115;-55
2023/03/06 01:45:59;;;;;;;23.77;11.20;;;;;;;;;;5033947;28;20049;-52
2023/03/06 01:48:26;;;;;;;30.25;12.70;;;;;;;;;;5016407;28;20061;-56
2023/03/06 01:50:54;;;;;;;25.88;11.13;;;;;;;;;;5034089;28;20383;-54
2023/03/06 01:53:21;;;;;;;27.85;11.98;;;;;;;;;;5033740;28;20104;-53
2023/03/06 01:55:48;;;;;;;25.67;11.25;;;;;;;;;;5033473;28;20100;-51
2023/03/06 01:58:18;;;;;;;29.15;12.68;;;;;;;;;;5033612;28;20049;-51
2023/03/06 02:00:45;;;;;;;29.58;12.63;;;;;;;;;;5033569;28;20128;-53
2023/03/06 02:03:14;;;;;;;29.27;12.27;;;;;;;;;;5033475;28;20483;-51
2023/03/06 02:05:42;;;;;;;26.08;11.98;;;;;;;;;;5033363;28;20058;-53
2023/03/06 02:08:12;;;;;;;25.08;12.70;;;;;;;;;;5033486;28;20056;-51
2023/03/06 02:10:42;;;;;;;26.20;11.20;;;;;;;;;;5033112;28;20045;-53
2023/03/06 02:13:08;;;;;;;25.05;10.52;;;;;;;;;;5033532;28;20049;-51
2023/03/06 02:15:35;;;;;;;27.15;12.45;;;;;;;;;;5033173;28;20122;-53
2023/03/06 02:18:02;;;;;;;28.20;11.68;;;;;;;;;;5033295;28;20073;-53
2023/03/06 02:20:33;;;;;;;28.90;11.77;;;;;;;;;;5033019;28;20493;-52
2023/03/06 02:23:06;;;;;;;29.13;12.82;;;;;;;;;;5033199;28;20099;-53
2023/03/06 02:25:38;;;;;;;26.70;11.77;;;;;;;;;;5033022;28;20552;-52
2023/03/06 02:28:06;;;;;;;24.15;11.38;;;;;;;;;;5032862;28;20103;-56
2023/03/06 02:30:34;;;;;;;26.27;12.30;;;;;;;;;;5032945;28;20521;-53
2023/03/06 02:33:01;;;;;;;28.60;12.10;;;;;;;;;;5032911;28;20049;-51
2023/03/06 02:35:30;;;;;;;30.45;12.93;;;;;;;;;;5032820;28;20049;-52
2023/03/06 02:37:59;;;;;;;28.77;13.10;;;;;;;;;;5032641;28;20046;-54
2023/03/06 02:40:26;;;;;;;27.50;12.95;;;;;;;;;;5032705;28;20049;-55
2023/03/06 02:42:56;;;;;;;26.02;12.93;;;;;;;;;;5032803;28;20095;-51
2023/03/06 02:45:30;;;;;;;25.83;11.55;;;;;;;;;;5032578;28;20099;-55
2023/03/06 02:47:57;;;;;;;27.38;11.70;;;;;;;;;;5032693;28;20046;-55
2023/03/06 02:50:23;;;;;;;29.35;12.90;;;;;;;;;;5032441;28;20046;-55
2023/03/06 02:52:50;;;;;;;26.27;11.88;;;;;;;;;;5032700;28;20107;-55
2023/03/06 02:55:17;;;;;;;26.17;11.48;;;;;;;;;;5032342;28;20046;-52
2023/03/06 02:57:44;;;;;;;28.67;13.32;;;;;;;;;;5032372;28;20046;-52
2023/03/06 03:00:13;;;;;;;27.17;11.77;;;;;;;;;;5032395;28;20045;-55
2023/03/06 03:02:40;;;;;;;26.45;12.00;;;;;;;;;;5032319;28;20045;-54
2023/03/06 03:05:08;;;;;;;31.77;13.25;;;;;;;;;;5032207;28;20054;-50
2023/03/06 03:07:35;;;;;;;30.85;11.98;;;;;;;;;;5032202;28;20541;-50
2023/03/06 03:10:02;;;;;;;24.95;11.63;;;;;;;;;;5032177;28;20045;-56
2023/03/06 03:12:29;;;;;;;29.63;12.48;;;;;;;;;;5032205;28;20045;-52
2023/03/06 03:14:56;;;;;;;30.05;12.00;;;;;;;;;;5032007;28;20053;-55
2023/03/06 03:17:24;;;;;;;27.60;12.23;;;;;;;;;;5032131;28;20046;-51
2023/03/06 03:19:51;;;;;;;27.08;12.10;;;;;;;;;;5032209;28;20050;-51
2023/03/06 03:22:19;;;;;;;28.42;12.55;;;;;;;;;;5031453;28;20061;-50
2023/03/06 03:24:46;;;;;;;24.00;12.30;;;;;;;;;;5032078;28;20144;-53
2023/03/06 03:27:13;;;;;;;25.95;11.48;;;;;;;;;;5032122;28;20485;-56
2023/03/06 03:29:40;;;;;;;30.20;13.43;;;;;;;;;;5031956;28;20095;-55
2023/03/06 03:32:07;;;;;;;27.25;12.50;;;;;;;;;;5032059;28;20053;-55
2023/03/06 03:34:35;;;;;;;23.55;10.63;;;;;;;;;;5031875;28;20045;-55
2023/03/06 03:37:02;;;;;;;27.45;11.52;;;;;;;;;;5031924;28;20576;-51
2023/03/06 03:39:29;;;;;;;30.45;11.48;;;;;;;;;;5032075;28;20568;-52
2023/03/06 03:41:56;;;;;;;27.80;11.95;;;;;;;;;;5032160;28;20391;-51
2023/03/06 03:44:23;;;;;;;25.13;11.23;;;;;;;;;;5031850;28;20460;-51
2023/03/06 03:46:50;;;;;;;27.88;12.02;;;;;;;;;;5031767;28;20502;-51
2023/03/06 03:49:17;;;;;;;27.48;12.35;;;;;;;;;;5031893;28;20045;-51
2023/03/06 03:51:45;;;;;;;26.45;11.52;;;;;;;;;;5031744;28;20046;-51
2023/03/06 03:54:12;;;;;;;32.20;12.60;;;;;;;;;;5031812;28;20136;-53
2023/03/06 03:56:40;;;;;;;28.35;11.73;;;;;;;;;;5031348;28;20049;-50
2023/03/06 03:59:08;;;;;;;30.73;12.25;;;;;;;;;;5031548;28;20053;-50
2023/03/06 04:01:34;;;;;;;31.27;13.15;;;;;;;;;;5031560;28;20053;-52
2023/03/06 04:04:01;;;;;;;24.30;12.00;;;;;;;;;;5031672;28;20057;-50
2023/03/06 04:06:28;;;;;;;30.33;12.25;;;;;;;;;;5031533;28;20049;-51
2023/03/06 04:08:56;;;;;;;25.58;11.45;;;;;;;;;;5032049;28;20045;-50
2023/03/06 04:11:23;;;;;;;27.27;12.45;;;;;;;;;;5031496;28;20534;-50
2023/03/06 04:13:50;;;;;;;25.42;10.90;;;;;;;;;;5031702;28;20108;-50
2023/03/06 04:16:17;;;;;;;28.63;12.13;;;;;;;;;;5031470;28;20099;-51
2023/03/06 04:18:44;;;;;;;27.33;11.25;;;;;;;;;;5031846;28;20048;-51
2023/03/06 04:21:10;;;;;;;26.48;11.15;;;;;;;;;;5031392;28;20053;-50
2023/03/06 04:23:37;;;;;;;24.08;11.40;;;;;;;;;;5031514;28;20056;-49
2023/03/06 04:26:06;;;;;;;26.70;10.90;;;;;;;;;;5031662;28;20053;-55
2023/03/06 04:28:33;;;;;;;26.60;11.02;;;;;;;;;;5031439;28;20529;-51
2023/03/06 04:31:00;;;;;;;26.00;10.88;;;;;;;;;;5031635;28;20568;-51
2023/03/06 04:33:27;;;;;;;22.90;11.35;;;;;;;;;;5032550;28;20449;-51
2023/03/06 04:35:53;;;;;;;23.58;11.55;;;;;;;;;;5034908;28;20395;-54
2023/03/06 04:38:20;;;;;;;23.27;11.82;;;;;;;;;;5035413;28;20104;-50
2023/03/06 04:40:48;;;;;;;29.55;13.25;;;;;;;;;;5034873;28;20387;-53
2023/03/06 04:43:16;;;;;;;25.70;10.93;;;;;;;;;;5035680;28;20057;-53
2023/03/06 04:45:43;;;;;;;23.55;10.93;;;;;;;;;;5034909;28;20053;-50
2023/03/06 04:48:12;;;;;;;25.50;11.88;;;;;;;;;;5034937;28;20049;-52
2023/03/06 04:50:39;;;;;;;27.23;11.77;;;;;;;;;;5034708;28;20057;-54
2023/03/06 04:53:07;;;;;;;30.15;13.05;;;;;;;;;;5034813;28;20054;-54
2023/03/06 04:55:34;;;;;;;26.98;12.32;;;;;;;;;;5034585;28;20077;-49
2023/03/06 04:58:01;;;;;;;27.92;12.82;;;;;;;;;;5035040;28;20409;-51
2023/03/06 05:00:30;;;;;;;27.83;12.77;;;;;;;;;;5034757;28;20056;-51
2023/03/06 05:02:57;;;;;;;27.85;12.20;;;;;;;;;;5034560;28;20049;-55
2023/03/06 05:05:25;;;;;;;23.67;11.32;;;;;;;;;;5034798;28;20053;-51
2023/03/06 05:07:52;;;;;;;31.33;13.32;;;;;;;;;;5034665;28;20045;-52
2023/03/06 05:10:19;;;;;;;24.88;11.30;;;;;;;;;;5034810;28;20045;-50
2023/03/06 05:12:46;;;;;;;30.15;12.35;;;;;;;;;;5034433;28;20491;-52
2023/03/06 05:15:13;;;;;;;33.35;13.05;;;;;;;;;;5034224;28;20053;-51
2023/03/06 05:17:42;;;;;;;26.67;11.65;;;;;;;;;;5034298;28;20049;-51
2023/03/06 05:20:11;;;;;;;27.85;11.52;;;;;;;;;;5034204;28;20068;-51
2023/03/06 05:22:38;;;;;;;29.90;12.88;;;;;;;;;;5034329;28;20391;-50
2023/03/06 05:25:06;;;;;;;27.35;11.68;;;;;;;;;;5034349;28;20700;-50
2023/03/06 05:27:33;;;;;;;24.60;12.02;;;;;;;;;;5034138;28;20099;-50
2023/03/06 05:30:00;;;;;;;26.65;11.55;;;;;;;;;;5034459;28;20053;-52
2023/03/06 05:32:27;;;;;;;26.63;11.30;;;;;;;;;;5034217;28;20046;-50
2023/03/06 05:34:56;;;;;;;27.08;11.98;;;;;;;;;;5034201;28;20042;-53
2023/03/06 05:37:23;;;;;;;26.23;12.00;;;;;;;;;;5034020;28;20049;-52
2023/03/06 05:39:50;;;;;;;24.42;11.23;;;;;;;;;;5033771;28;20049;-53
2023/03/06 05:42:17;;;;;;;27.98;12.88;;;;;;;;;;5033893;28;20103;-52
2023/03/06 05:44:44;;;;;;;27.45;12.15;;;;;;;;;;5033656;28;20458;-49
2023/03/06 05:47:10;;;;;;;26.92;13.25;;;;;;;;;;5033673;28;20139;-49
2023/03/06 05:49:38;;;;;;;31.60;12.57;;;;;;;;;;5033659;28;20046;-50
2023/03/06 05:52:07;;;;;;;29.05;12.40;;;;;;;;;;5033473;28;20049;-50
2023/03/06 05:54:36;;;;;;;29.25;12.38;;;;;;;;;;5033775;28;20656;-50
2023/03/06 05:57:04;;;;;;;27.13;11.57;;;;;;;;;;5033379;28;20045;-49
2023/03/06 05:59:31;;;;;;;26.17;11.18;;;;;;;;;;5033470;28;20461;-50
2023/03/06 06:01:59;;;;;;;34.13;13.30;;;;;;;;;;5067235;22;20045;-80
2023/03/06 06:04:26;;;;;;;27.48;11.57;;;;;;;;;;5058645;28;20471;-80
2023/03/06 06:06:54;;;;;;;27.42;12.45;;;;;;;;;;5058168;28;20044;-80
2023/03/06 06:09:22;;;;;;;23.83;11.30;;;;;;;;;;5058469;28;20655;-80
2023/03/06 06:11:52;;;;;;;32.55;12.82;;;;;;;;;;5058336;28;20060;-80
2023/03/06 06:14:18;;;;;;;29.38;11.75;;;;;;;;;;5059046;28;20537;-80
2023/03/06 06:16:45;;;;;;;31.10;13.98;;;;;;;;;;5062363;28;20056;-80
2023/03/06 06:19:17;;;;;;;28.83;12.45;;;;;;;;;;5078701;28;20044;-81
2023/03/06 06:21:44;;;;;;;28.85;11.43;;;;;;;;;;5082160;28;20068;-80
2023/03/06 06:24:11;;;;;;;29.20;11.88;;;;;;;;;;5082193;28;20112;-81
2023/03/06 06:26:39;;;;;;;27.17;12.07;;;;;;;;;;5085245;28;20044;-80
2023/03/06 06:29:06;;;;;;;32.63;13.05;;;;;;;;;;5085210;28;20136;-80
2023/03/06 06:31:32;;;;;;;31.48;12.15;;;;;;;;;;5085368;28;20104;-81
2023/03/06 06:33:59;;;;;;;24.00;12.32;;;;;;;;;;5085783;28;20076;-83
2023/03/06 06:36:26;;;;;;;33.05;11.70;;;;;;;;;;5083853;28;20113;-81
2023/03/06 06:38:52;;;;;;;25.85;11.85;;;;;;;;;;5069321;28;20083;-81
2023/03/06 06:41:19;;;;;;;30.73;11.70;;;;;;;;;;5061914;28;20104;-81
2023/03/06 06:43:47;;;;;;;28.77;11.23;;;;;;;;;;5066434;28;20068;-81
2023/03/06 06:46:13;;;;;;;26.67;11.05;;;;;;;;;;5086315;28;20076;-81
2023/03/06 06:48:40;;;;;;;27.20;12.10;;;;;;;;;;5094865;28;20068;-81
2023/03/06 06:51:07;;;;;;;30.35;12.18;;;;;;;;;;5093749;28;20044;-81
2023/03/06 06:53:33;;;;;;;32.47;13.10;;;;;;;;;;5082461;28;20047;-81
2023/03/06 06:56:00;;;;;;;32.17;11.85;;;;;;;;;;5079060;28;20045;-81
2023/03/06 06:58:27;;;;;;;29.27;11.25;;;;;;;;;;5068450;28;20109;-80
2023/03/06 07:00:55;;;;;;;27.25;11.50;;;;;;;;;;5058641;28;20128;-80
2023/03/06 07:03:21;;;;;;;25.65;10.63;;;;;;;;;;5058060;28;20136;-81
2023/03/06 07:05:54;;;;;;;30.60;11.98;;;;;;;;;;5057189;28;20067;-82
2023/03/06 07:08:21;;;;;;;28.88;11.43;;;;;;;;;;5057437;28;20131;-81
2023/03/06 07:10:47;;;;;;;27.35;11.93;;;;;;;;;;5057747;28;20047;-81
2023/03/06 07:13:14;;;;;;;28.88;11.50;;;;;;;;;;5060601;28;20053;-81
2023/03/06 07:15:41;;;;;;;30.92;12.93;;;;;;;;;;5077443;28;20123;-81
2023/03/06 07:18:09;;;;;;;28.35;11.65;;;;;;;;;;5078189;28;20088;-80
2023/03/06 07:20:36;;;;;;;33.00;13.27;;;;;;;;;;5078371;28;20087;-81
2023/03/06 07:23:02;;;;;;;28.95;11.65;;;;;;;;;;5079089;28;20056;-81
2023/03/06 07:25:29;;;;;;;29.98;13.30;;;;;;;;;;5078425;28;20050;-81
2023/03/06 07:27:56;;;;;;;27.17;12.48;;;;;;;;;;5078303;28;20102;-81
2023/03/06 07:30:24;;;;;;;29.33;12.40;;;;;;;;;;5078717;28;20080;-81
2023/03/06 07:32:53;;;;;;;28.60;12.18;;;;;;;;;;5078916;28;20044;-80
2023/03/06 07:35:21;;;;;;;27.85;11.15;;;;;;;;;;5077653;28;20573;-81
2023/03/06 07:37:48;;;;;;;28.33;12.40;;;;;;;;;;5090695;28;20075;-80
2023/03/06 07:40:15;;;;;;;30.15;11.85;;;;;;;;;;5095748;28;20037;-79
2023/03/06 07:42:41;;;;;;;27.98;12.27;;;;;;;;;;5095364;28;20041;-83
2023/03/06 07:45:09;;;;;;;31.45;11.68;;;;;;;;;;5081546;28;20072;-80
2023/03/06 07:47:35;;;;;;;33.72;12.63;;;;;;;;;;5081994;28;20048;-81
2023/03/06 07:50:04;;;;;;;30.35;12.73;;;;;;;;;;5075949;28;20071;-81
2023/03/06 07:52:32;;;;;;;30.45;12.77;;;;;;;;;;5058739;28;20629;-80
2023/03/06 07:54:59;;;;;;;33.47;13.00;;;;;;;;;;5058457;28;20143;-80
2023/03/06 07:57:25;;;;;;;31.27;12.48;;;;;;;;;;5057704;28;20128;-81
2023/03/06 07:59:52;;;;;;;35.30;13.25;;;;;;;;;;5057929;28;20051;-81
2023/03/06 08:02:19;;;;;;;26.15;11.88;;;;;;;;;;5058095;28;20044;-80
2023/03/06 08:04:51;;;;;;;28.98;11.80;;;;;;;;;;5058062;28;20128;-80
2023/03/06 08:07:17;;;;;;;28.05;11.07;;;;;;;;;;5060551;28;20084;-81
2023/03/06 08:09:45;;;;;;;29.42;11.80;;;;;;;;;;5061583;28;20044;-81
2023/03/06 08:12:12;;;;;;;30.25;12.80;;;;;;;;;;5061953;28;20132;-81
2023/03/06 08:14:38;;;;;;;30.85;11.75;;;;;;;;;;5062777;28;20080;-81
2023/03/06 08:17:05;;;;;;;24.08;10.77;;;;;;;;;;5060281;28;20190;-81
2023/03/06 08:19:32;;;;;;;27.48;11.57;;;;;;;;;;5060004;28;20049;-80
2023/03/06 08:21:59;;;;;;;31.75;12.98;;;;;;;;;;5073826;28;20099;-80
2023/03/06 08:24:25;;;;;;;29.20;11.10;;;;;;;;;;5088836;28;20045;-81
2023/03/06 08:26:53;;;;;;;31.30;13.18;;;;;;;;;;5088259;28;20056;-81
2023/03/06 08:29:20;;;;;;;31.13;12.55;;;;;;;;;;5070326;28;20069;-79
2023/03/06 08:31:47;;;;;;;32.22;12.45;;;;;;;;;;5065797;28;20037;-81
2023/03/06 08:34:17;;;;;;;31.55;11.85;;;;;;;;;;5069704;28;20053;-81
2023/03/06 08:36:44;;;;;;;26.40;12.25;;;;;;;;;;5048474;28;20041;-82
2023/03/06 08:39:11;;;;;;;23.88;12.35;;;;;;;;;;5052948;28;20117;-82
2023/03/06 08:41:41;;;;;;;28.95;12.52;;;;;;;;;;5077402;28;20040;-85
2023/03/06 08:44:09;;;;;;;29.85;12.85;;;;;;;;;;5078931;28;20104;-79
2023/03/06 08:46:36;;;;;;;31.95;13.20;;;;;;;;;;5064233;28;20486;-77
2023/03/06 08:49:03;;;;;;;36.10;13.82;;;;;;;;;;5077194;28;20136;-83
2023/03/06 08:51:30;;;;;;;27.33;12.68;;;;;;;;;;5071927;28;20623;-79
2023/03/06 08:53:57;;;;;;;31.95;13.52;;;;;;;;;;5068569;28;20131;-78
2023/03/06 08:56:25;;;;;;;27.65;11.93;;;;;;;;;;5064032;28;20104;-78
2023/03/06 08:58:53;;;;;;;34.97;14.77;;;;;;;;;;5061283;28;20044;-78
2023/03/06 09:01:23;;;;;;;31.40;13.55;;;;;;;;;;5062664;28;20044;-77
2023/03/06 09:03:50;;;;;;;30.73;12.77;;;;;;;;;;5077679;28;20064;-78
2023/03/06 09:06:17;;;;;;;30.67;12.93;;;;;;;;;;5068203;28;20080;-77
2023/03/06 09:08:43;;;;;;;31.00;13.00;;;;;;;;;;5055180;28;20057;-77
2023/03/06 09:11:10;;;;;;;38.17;14.30;;;;;;;;;;5071961;28;20391;-78
2023/03/06 09:13:37;;;;;;;30.52;13.13;;;;;;;;;;5065785;28;20384;-77
2023/03/06 09:16:04;;;;;;;30.08;12.38;;;;;;;;;;5075220;28;20132;-78
2023/03/06 09:18:32;;;;;;;31.80;13.68;;;;;;;;;;5076409;28;20464;-78
2023/03/06 09:20:59;;;;;;;26.70;12.60;;;;;;;;;;5053182;28;20054;-78
2023/03/06 09:23:25;;;;;;;26.95;13.55;;;;;;;;;;5078424;28;20136;-77
2023/03/06 09:25:52;;;;;;;30.27;12.98;;;;;;;;;;5066813;28;20041;-78
2023/03/06 09:28:19;;;;;;;31.48;13.45;;;;;;;;;;5063346;28;20062;-78
2023/03/06 09:30:46;;;;;;;34.70;13.77;;;;;;;;;;5077241;28;20055;-78
2023/03/06 09:33:13;;;;;;;31.05;13.77;;;;;;;;;;5078062;28;20561;-78
2023/03/06 09:35:47;;;;;;;32.42;13.00;;;;;;;;;;5077281;28;20041;-78
2023/03/06 09:38:13;;;;;;;35.50;14.45;;;;;;;;;;5077437;28;20140;-78
2023/03/06 09:40:54;;;;;;;34.28;14.25;;;;;;;;;;5070724;28;20121;-78
2023/03/06 09:43:28;;;;;;;28.50;12.32;;;;;;;;;;5076701;28;20052;-78
2023/03/06 09:45:55;;;;;;;28.58;12.55;;;;;;;;;;5071886;28;20041;-78
2023/03/06 09:48:26;;;;;;;32.42;12.82;;;;;;;;;;5078746;28;20131;-78
2023/03/06 09:51:01;;;;;;;33.38;14.30;;;;;;;;;;5066589;28;20047;-78
2023/03/06 09:53:47;;;;;;;32.42;13.63;;;;;;;;;;5056380;28;20132;-78
2023/03/06 09:56:17;;;;;;;33.55;14.18;;;;;;;;;;5055612;28;20092;-78
2023/03/06 09:58:48;;;;;;;31.73;12.60;;;;;;;;;;5055992;28;20047;-83
2023/03/06 10:01:20;;;;;;;30.95;13.88;;;;;;;;;;5056226;28;20349;-78
2023/03/06 10:03:50;;;;;;;30.73;13.07;;;;;;;;;;5064348;28;20071;-77
2023/03/06 10:06:24;;;;;;;28.80;12.23;;;;;;;;;;5048300;28;20104;-78
2023/03/06 10:08:56;;;;;;;33.28;12.82;;;;;;;;;;5063975;28;20552;-77
2023/03/06 10:11:31;;;;;;;28.23;12.93;;;;;;;;;;5078031;28;20053;-77
2023/03/06 10:14:12;;;;;;;28.00;12.80;;;;;;;;;;5055633;28;20077;-78
2023/03/06 10:16:38;;;;;;;;;;;;;;;;;;5057531;28;20498;-77
2023/03/06 10:19:13;;;;;;;27.25;11.32;;;;;;;;;;5058043;28;19987;-78
2023/03/06 10:21:49;;;;;;;31.98;12.90;;;;;;;;;;5057375;28;20168;-77
2023/03/06 10:24:28;;;;;;;33.33;13.25;;;;;;;;;;5056437;28;20048;-79
2023/03/06 10:26:59;;;;;;;26.65;12.23;;;;;;;;;;5056727;28;20415;-78
2023/03/06 10:29:35;;;;;;;32.05;12.60;;;;;;;;;;5057547;28;20462;-77
2023/03/06 10:32:10;;;;;;;28.05;11.00;;;;;;;;;;5055682;28;20124;-77
2023/03/06 10:34:38;;;;;;;29.10;12.43;;;;;;;;;;5057467;28;20045;-78
2023/03/06 10:37:17;;;;;;;28.25;11.30;;;;;;;;;;5057857;28;20079;-79
2023/03/06 10:39:44;;;;;;;26.00;12.50;;;;;;;;;;5053474;28;20047;-78
2023/03/06 10:42:11;;;;;;;24.73;11.68;;;;;;;;;;5059641;28;20080;-78
2023/03/06 10:44:38;;;;;;;24.13;11.48;;;;;;;;;;5056293;28;20546;-78
2023/03/06 10:47:27;;;;;;;27.90;12.30;;;;;;;;;;5062455;28;20055;-78
2023/03/06 10:49:58;;;;;;;24.48;12.02;;;;;;;;;;5078137;28;20041;-77
2023/03/06 10:52:29;;;;;;;26.00;12.00;;;;;;;;;;5069448;28;20693;-78
2023/03/06 10:55:22;;;;;;;27.77;12.02;;;;;;;;;;5055185;28;20044;-78
2023/03/06 10:57:49;;;;;;;27.88;11.40;;;;;;;;;;5057820;28;20087;-79
2023/03/06 11:00:32;;;;;;;27.50;12.23;;;;;;;;;;5063720;28;20068;-80
2023/03/06 11:03:13;;;;;;;25.90;11.32;;;;;;;;;;5037775;28;20091;-79
2023/03/06 11:05:40;;;;;;;28.20;11.98;;;;;;;;;;5051409;28;20135;-77
2023/03/06 11:08:21;;;;;;;24.95;11.40;;;;;;;;;;5052063;28;20547;-78
2023/03/06 11:10:55;;;;;;;28.67;11.27;;;;;;;;;;5054792;28;20060;-77
2023/03/06 11:13:24;;;;;;;26.38;11.48;;;;;;;;;;5056309;28;20100;-79
2023/03/06 11:15:57;;;;;;;25.75;10.73;;;;;;;;;;5067089;28;20082;-78
2023/03/06 11:18:33;;;;;;;23.30;11.15;;;;;;;;;;5070756;28;20091;-77
2023/03/06 11:21:03;;;;;;;24.50;11.80;;;;;;;;;;5076778;28;20108;-78
2023/03/06 11:23:38;;;;;;;38.15;13.13;;;;;;;;;;5079867;28;20041;-79
2023/03/06 11:26:20;;;;;;;28.98;13.10;;;;;;;;;;5080817;28;20224;-78
2023/03/06 11:28:50;;;;;;;28.15;11.93;;;;;;;;;;5079858;28;20113;-78
2023/03/06 11:31:20;;;;;;;29.00;12.32;;;;;;;;;;5087332;28;20072;-77
2023/03/06 11:33:52;;;;;;;22.95;12.00;;;;;;;;;;5093223;28;20028;-76
2023/03/06 11:36:25;;;;;;;28.25;11.93;;;;;;;;;;5091374;28;20401;-77
2023/03/06 11:38:54;;;;;;;25.80;11.88;;;;;;;;;;5091836;28;20041;-76
2023/03/06 11:41:31;;;;;;;25.38;11.10;;;;;;;;;;5090585;28;20056;-77
2023/03/06 11:44:05;;;;;;;30.55;11.38;;;;;;;;;;5089650;28;20045;-78
2023/03/06 11:46:37;;;;;;;26.75;11.32;;;;;;;;;;5082566;28;20072;-79
2023/03/06 11:49:12;;;;;;;31.77;13.35;;;;;;;;;;5080032;28;20052;-79
2023/03/06 11:51:43;;;;;;;26.70;12.15;;;;;;;;;;5081573;28;20052;-78
2023/03/06 11:54:13;;;;;;;25.52;10.88;;;;;;;;;;5074779;28;20041;-78
2023/03/06 11:56:47;;;;;;;28.70;12.45;;;;;;;;;;5059839;28;20104;-78
2023/03/06 11:59:46;;;;;;;24.10;10.40;;;;;;;;;;5059316;28;20052;-79
2023/03/06 12:02:24;;;;;;;26.25;11.68;;;;;;;;;;5061960;28;20041;-79
2023/03/06 12:05:00;;;;;;;28.60;11.23;;;;;;;;;;5064076;28;20087;-78
2023/03/06 12:07:32;;;;;;;27.33;11.30;;;;;;;;;;5059838;28;20049;-78
2023/03/06 12:10:12;;;;;;;26.35;10.70;;;;;;;;;;5073139;22;20055;-78
2023/03/06 12:13:06;;;;;;;23.50;10.47;;;;;;;;;;5035239;28;20095;-79
2023/03/06 12:15:55;;;;;;;23.08;10.32;;;;;;;;;;5058373;28;20037;-79
2023/03/06 12:18:35;;;;;;;24.20;11.55;;;;;;;;;;5054382;28;20122;-78
2023/03/06 12:21:07;;;;;;;25.30;10.20;;;;;;;;;;5054136;28;20060;-79
2023/03/06 12:23:48;;;;;;;24.85;10.00;;;;;;;;;;5053889;28;20541;-78
2023/03/06 12:26:33;;;;;;;24.02;10.50;;;;;;;;;;5055396;28;20049;-78
2023/03/06 12:29:21;;;;;;;25.35;10.25;;;;;;;;;;5035149;28;20117;-81
2023/03/06 12:32:08;;;;;;;25.13;11.20;;;;;;;;;;5035412;28;20060;-81
2023/03/06 12:34:51;;;;;;;25.77;11.05;;;;;;;;;;5035737;28;20038;-80
2023/03/06 12:37:23;;;;;;;26.58;11.35;;;;;;;;;;5036491;28;20099;-78
2023/03/06 12:40:17;;;;;;;25.63;12.13;;;;;;;;;;5036736;28;20072;-79
2023/03/06 12:43:03;;;;;;;23.25;10.57;;;;;;;;;;5046344;28;20075;-78
2023/03/06 12:45:32;;;;;;;26.38;11.52;;;;;;;;;;5055754;28;20061;-77
2023/03/06 12:48:00;;;;;;;26.30;11.73;;;;;;;;;;5054550;28;20096;-80
2023/03/06 12:50:29;;;;;;;23.95;10.57;;;;;;;;;;5054754;28;20045;-79
2023/03/06 12:52:58;;;;;;;21.77;10.55;;;;;;;;;;5055649;28;20412;-80
2023/03/06 12:55:26;;;;;;;24.25;10.95;;;;;;;;;;5061304;28;20575;-84
2023/03/06 12:57:54;;;;;;;25.92;11.13;;;;;;;;;;5063520;28;20045;-85
2023/03/06 13:00:57;;;;;;;27.98;11.27;;;;;;;;;;5065039;28;20067;-78
2023/03/06 13:03:29;;;;;;;25.08;10.65;;;;;;;;;;5076482;28;20457;-82
2023/03/06 13:06:19;;;;;;;28.77;10.95;;;;;;;;;;5065553;28;20136;-79
2023/03/06 13:09:05;;;;;;;26.00;11.27;;;;;;;;;;5060221;28;20084;-79
2023/03/06 13:12:00;;;;;;;26.77;11.50;;;;;;;;;;5060334;28;20396;-79
2023/03/06 13:14:34;;;;;;;27.73;10.95;;;;;;;;;;5061520;28;20041;-79
2023/03/06 13:17:32;;;;;;;29.48;11.65;;;;;;;;;;5058542;28;20068;-78
2023/03/06 13:20:27;;;;;;;25.48;11.38;;;;;;;;;;5056144;28;20120;-78
2023/03/06 13:22:53;;;;;;;24.85;10.48;;;;;;;;;;5057866;28;20696;-79
2023/03/06 13:25:50;;;;;;;28.83;10.45;;;;;;;;;;5058309;28;20124;-79
2023/03/06 13:28:25;;;;;;;23.15;10.25;;;;;;;;;;5016240;28;20056;-79
2023/03/06 13:30:54;;;;;;;28.00;11.45;;;;;;;;;;5059581;28;20045;-80
2023/03/06 13:33:53;;;;;;;26.10;11.18;;;;;;;;;;5077020;28;20048;-78
2023/03/06 13:36:28;;;;;;;25.33;10.15;;;;;;;;;;5066945;28;20033;-77
2023/03/06 13:38:57;;;;;;;25.25;10.98;;;;;;;;;;5085648;28;20073;-77
2023/03/06 13:41:36;;;;;;;27.45;11.00;;;;;;;;;;5090359;28;20045;-77
2023/03/06 13:44:27;;;;;;;26.90;10.80;;;;;;;;;;5070930;28;20040;-78
2023/03/06 13:47:00;;;;;;;24.60;10.85;;;;;;;;;;5068184;28;20101;-78
2023/03/06 13:49:28;;;;;;;26.05;11.45;;;;;;;;;;5089726;28;20068;-76
2023/03/06 13:52:07;;;;;;;28.58;10.73;;;;;;;;;;5075935;28;20041;-76
2023/03/06 13:54:47;;;;;;;26.95;11.70;;;;;;;;;;5057616;28;20036;-75
2023/03/06 13:57:42;;;;;;;27.02;11.50;;;;;;;;;;5069631;28;20044;-79
2023/03/06 14:00:33;;;;;;;24.80;11.18;;;;;;;;;;5081617;28;20056;-76
2023/03/06 14:03:09;;;;;;;;;;;;;;;;;;5067296;28;20092;-78
2023/03/06 14:05:43;;;;;;;27.30;11.45;;;;;;;;;;5062709;28;19971;-78
2023/03/06 14:08:14;;;;;;;24.98;10.82;;;;;;;;;;5061639;28;20076;-77
2023/03/06 14:10:43;;;;;;;25.88;11.52;;;;;;;;;;5068915;28;20056;-78
2023/03/06 14:13:17;;;;;;;24.60;11.05;;;;;;;;;;5064151;28;20044;-77
2023/03/06 14:15:46;;;;;;;22.70;11.25;;;;;;;;;;5076527;28;20087;-78
2023/03/06 14:18:20;;;;;;;26.13;11.93;;;;;;;;;;5067799;28;20101;-77
2023/03/06 14:20:51;;;;;;;23.27;10.77;;;;;;;;;;5056273;28;20128;-78
2023/03/06 14:23:31;;;;;;;24.75;11.60;;;;;;;;;;5060206;28;20056;-77
2023/03/06 14:26:14;;;;;;;23.33;11.18;;;;;;;;;;5049049;28;20048;-77
2023/03/06 14:28:41;;;;;;;24.83;10.90;;;;;;;;;;5055939;28;20139;-77
2023/03/06 14:31:16;;;;;;;27.65;11.30;;;;;;;;;;5057675;28;20051;-77
2023/03/06 14:33:51;;;;;;;20.90;10.75;;;;;;;;;;5067238;28;20048;-77
2023/03/06 14:36:21;;;;;;;24.70;10.55;;;;;;;;;;5062921;28;20075;-77
2023/03/06 14:38:51;;;;;;;24.67;10.85;;;;;;;;;;5066797;28;20045;-77